CEB4N RPLL-RPVM
Flight info
| Callsign | CEB4N |
|---|---|
| Flight time | N/A |
| Altitude | 37000 |
| Route | IPATA2R IPATA W25 BATAY BATAY3P |
| Aircraft | A339/H-SADE1E2E3GHIJ3J5M1P2RWXY/LB2D1 |
Departure
| Time | N/A |
|---|---|
| Airport | Ninoy Aquino International Airport (RPLL) |
Arrival
| Time | 2026-05-05 15:11 |
|---|---|
| Airport | Mactan Cebu International Airport (RPVM) |
| Time | Latitude | Longitude | Altitude | Speed | Heading |
|---|---|---|---|---|---|
| 2026-05-05 14:35 | 12.76295 | 122.64132 | 37069 ft | 449 kts | 145° |
| 2026-05-05 14:35 | 12.73719 | 122.66057 | 36935 ft | 459 kts | 145° |
| 2026-05-05 14:35 | 12.71301 | 122.67862 | 36902 ft | 463 kts | 145° |
| 2026-05-05 14:36 | 12.65991 | 122.71825 | 36898 ft | 464 kts | 145° |
| 2026-05-05 14:36 | 12.60716 | 122.75761 | 36897 ft | 464 kts | 145° |
| 2026-05-05 14:37 | 12.55494 | 122.79657 | 36896 ft | 464 kts | 145° |
| 2026-05-05 14:37 | 12.50266 | 122.83553 | 36892 ft | 464 kts | 145° |
| 2026-05-05 14:38 | 12.45041 | 122.87448 | 36890 ft | 464 kts | 145° |
| 2026-05-05 14:38 | 12.39818 | 122.91339 | 36885 ft | 463 kts | 145° |
| 2026-05-05 14:39 | 12.34594 | 122.95230 | 36882 ft | 463 kts | 145° |
| 2026-05-05 14:39 | 12.29412 | 122.99078 | 36882 ft | 463 kts | 145° |
| 2026-05-05 14:40 | 12.24171 | 123.02962 | 36882 ft | 463 kts | 145° |
| 2026-05-05 14:40 | 12.18982 | 123.06814 | 36567 ft | 462 kts | 145° |
| 2026-05-05 14:41 | 12.16344 | 123.08770 | 35552 ft | 470 kts | 145° |
| 2026-05-05 14:41 | 12.13678 | 123.10748 | 34517 ft | 476 kts | 145° |
| 2026-05-05 14:41 | 12.11014 | 123.12724 | 33720 ft | 477 kts | 145° |
| 2026-05-05 14:41 | 12.08335 | 123.14713 | 33225 ft | 472 kts | 145° |
| 2026-05-05 14:42 | 12.05689 | 123.16677 | 32753 ft | 466 kts | 145° |
| 2026-05-05 14:42 | 12.03057 | 123.18629 | 32266 ft | 462 kts | 145° |
| 2026-05-05 14:42 | 12.00438 | 123.20570 | 31772 ft | 459 kts | 144° |
| 2026-05-05 14:42 | 11.97874 | 123.22471 | 31287 ft | 455 kts | 144° |
| 2026-05-05 14:43 | 11.95313 | 123.24368 | 30796 ft | 452 kts | 144° |
| 2026-05-05 14:43 | 11.92772 | 123.26251 | 30303 ft | 449 kts | 144° |
| 2026-05-05 14:43 | 11.90207 | 123.28152 | 29809 ft | 445 kts | 144° |
| 2026-05-05 14:43 | 11.87679 | 123.30024 | 29253 ft | 444 kts | 144° |
| 2026-05-05 14:44 | 11.85182 | 123.31872 | 28771 ft | 441 kts | 144° |
| 2026-05-05 14:44 | 11.82727 | 123.33691 | 28365 ft | 436 kts | 144° |
| 2026-05-05 14:44 | 11.80264 | 123.35514 | 28000 ft | 431 kts | 144° |
| 2026-05-05 14:44 | 11.77847 | 123.37302 | 27653 ft | 425 kts | 144° |
| 2026-05-05 14:45 | 11.75466 | 123.39065 | 27317 ft | 419 kts | 144° |
| 2026-05-05 14:45 | 11.73140 | 123.40785 | 26980 ft | 414 kts | 144° |
| 2026-05-05 14:45 | 11.70823 | 123.42499 | 26632 ft | 410 kts | 144° |
| 2026-05-05 14:45 | 11.68519 | 123.44202 | 26280 ft | 405 kts | 144° |
| 2026-05-05 14:46 | 11.66229 | 123.45895 | 25917 ft | 401 kts | 143° |
| 2026-05-05 14:46 | 11.63990 | 123.47549 | 25569 ft | 397 kts | 143° |
| 2026-05-05 14:46 | 11.61782 | 123.49180 | 25221 ft | 393 kts | 143° |
| 2026-05-05 14:46 | 11.59554 | 123.50826 | 24872 ft | 389 kts | 143° |
| 2026-05-05 14:47 | 11.57376 | 123.52434 | 24525 ft | 386 kts | 143° |
| 2026-05-05 14:47 | 11.55207 | 123.54037 | 24182 ft | 382 kts | 143° |
| 2026-05-05 14:47 | 11.53075 | 123.55612 | 23848 ft | 379 kts | 143° |
| 2026-05-05 14:47 | 11.50938 | 123.57190 | 23516 ft | 375 kts | 143° |
| 2026-05-05 14:48 | 11.48837 | 123.58742 | 23187 ft | 372 kts | 143° |
| 2026-05-05 14:48 | 11.46723 | 123.60301 | 22860 ft | 368 kts | 143° |
| 2026-05-05 14:48 | 11.44639 | 123.61839 | 22557 ft | 364 kts | 143° |
| 2026-05-05 14:48 | 11.42585 | 123.63354 | 22241 ft | 361 kts | 143° |
| 2026-05-05 14:49 | 11.40532 | 123.64868 | 21921 ft | 358 kts | 143° |
| 2026-05-05 14:49 | 11.38510 | 123.66360 | 21589 ft | 356 kts | 143° |
| 2026-05-05 14:49 | 11.36513 | 123.67832 | 21248 ft | 354 kts | 143° |
| 2026-05-05 14:49 | 11.34485 | 123.69328 | 20897 ft | 353 kts | 143° |
| 2026-05-05 14:50 | 11.32526 | 123.70772 | 20554 ft | 352 kts | 142° |
| 2026-05-05 14:50 | 11.30533 | 123.72242 | 20182 ft | 351 kts | 142° |
| 2026-05-05 14:50 | 11.28536 | 123.73714 | 19815 ft | 350 kts | 142° |
| 2026-05-05 14:50 | 11.26573 | 123.75161 | 19458 ft | 349 kts | 142° |
| 2026-05-05 14:51 | 11.24600 | 123.76614 | 19106 ft | 348 kts | 142° |
| 2026-05-05 14:51 | 11.22632 | 123.78065 | 18752 ft | 347 kts | 142° |
| 2026-05-05 14:51 | 11.20640 | 123.79533 | 18395 ft | 346 kts | 142° |
| 2026-05-05 14:51 | 11.18663 | 123.80988 | 18040 ft | 345 kts | 142° |
| 2026-05-05 14:52 | 11.16723 | 123.82416 | 17695 ft | 344 kts | 142° |
| 2026-05-05 14:52 | 11.14657 | 123.83672 | 17311 ft | 346 kts | 159° |
| 2026-05-05 14:52 | 11.12271 | 123.84020 | 16956 ft | 349 kts | 182° |
| 2026-05-05 14:52 | 11.09876 | 123.83495 | 16622 ft | 349 kts | 194° |
| 2026-05-05 14:53 | 11.07549 | 123.82821 | 16285 ft | 348 kts | 194° |
| 2026-05-05 14:53 | 11.05218 | 123.82150 | 15943 ft | 347 kts | 194° |
| 2026-05-05 14:53 | 11.02895 | 123.81489 | 15604 ft | 346 kts | 194° |
| 2026-05-05 14:53 | 11.00540 | 123.80825 | 15260 ft | 345 kts | 194° |
| 2026-05-05 14:54 | 10.98229 | 123.80177 | 14921 ft | 344 kts | 194° |
| 2026-05-05 14:54 | 10.95890 | 123.79521 | 14578 ft | 343 kts | 193° |
| 2026-05-05 14:54 | 10.93597 | 123.78880 | 14241 ft | 342 kts | 193° |
| 2026-05-05 14:54 | 10.91312 | 123.78242 | 13904 ft | 341 kts | 194° |
| 2026-05-05 14:55 | 10.88988 | 123.77593 | 13566 ft | 339 kts | 194° |
| 2026-05-05 14:55 | 10.86721 | 123.76960 | 13232 ft | 338 kts | 194° |
| 2026-05-05 14:55 | 10.84448 | 123.76325 | 12905 ft | 337 kts | 194° |
| 2026-05-05 14:55 | 10.82174 | 123.75690 | 12577 ft | 335 kts | 193° |
| 2026-05-05 14:56 | 10.79925 | 123.75062 | 12257 ft | 333 kts | 193° |
| 2026-05-05 14:56 | 10.77659 | 123.74430 | 11939 ft | 331 kts | 193° |
| 2026-05-05 14:56 | 10.75436 | 123.73811 | 11633 ft | 329 kts | 193° |
| 2026-05-05 14:56 | 10.73203 | 123.73188 | 11327 ft | 327 kts | 193° |
| 2026-05-05 14:57 | 10.71012 | 123.72578 | 11021 ft | 325 kts | 193° |
| 2026-05-05 14:57 | 10.68839 | 123.71972 | 10715 ft | 323 kts | 193° |
| 2026-05-05 14:57 | 10.66663 | 123.71366 | 10403 ft | 322 kts | 193° |
| 2026-05-05 14:57 | 10.64510 | 123.70766 | 10092 ft | 320 kts | 193° |
| 2026-05-05 14:58 | 10.62362 | 123.70167 | 9910 ft | 313 kts | 193° |
| 2026-05-05 14:58 | 10.60240 | 123.69575 | 9873 ft | 302 kts | 193° |
| 2026-05-05 14:58 | 10.58218 | 123.69011 | 9615 ft | 300 kts | 193° |
| 2026-05-05 14:58 | 10.56211 | 123.68453 | 9321 ft | 299 kts | 193° |
| 2026-05-05 14:59 | 10.54196 | 123.67893 | 9041 ft | 298 kts | 193° |
| 2026-05-05 14:59 | 10.52180 | 123.67333 | 8762 ft | 297 kts | 193° |
| 2026-05-05 14:59 | 10.50203 | 123.66783 | 8488 ft | 296 kts | 193° |
| 2026-05-05 14:59 | 10.48215 | 123.66230 | 8208 ft | 295 kts | 193° |
| 2026-05-05 15:00 | 10.46233 | 123.65678 | 7930 ft | 293 kts | 193° |
| 2026-05-05 15:00 | 10.44918 | 123.65312 | 7749 ft | 292 kts | 193° |
| 2026-05-05 15:00 | 10.42280 | 123.64578 | 7380 ft | 291 kts | 193° |
| 2026-05-05 15:00 | 10.40314 | 123.64031 | 7100 ft | 290 kts | 193° |
| 2026-05-05 15:01 | 10.38359 | 123.63487 | 6825 ft | 289 kts | 193° |
| 2026-05-05 15:01 | 10.36429 | 123.62957 | 6555 ft | 288 kts | 190° |
| 2026-05-05 15:01 | 10.34447 | 123.62929 | 6246 ft | 281 kts | 160° |
| 2026-05-05 15:01 | 10.32831 | 123.63924 | 5987 ft | 274 kts | 133° |
| 2026-05-05 15:02 | 10.31517 | 123.65334 | 5738 ft | 272 kts | 131° |
| 2026-05-05 15:02 | 10.30219 | 123.66720 | 5473 ft | 272 kts | 131° |
| 2026-05-05 15:02 | 10.28895 | 123.68107 | 5157 ft | 273 kts | 132° |
| 2026-05-05 15:02 | 10.27558 | 123.69485 | 5018 ft | 267 kts | 133° |
| 2026-05-05 15:03 | 10.26256 | 123.70816 | 5015 ft | 267 kts | 133° |
| 2026-05-05 15:03 | 10.24975 | 123.72118 | 4965 ft | 247 kts | 133° |
| 2026-05-05 15:03 | 10.23807 | 123.73304 | 4983 ft | 230 kts | 133° |
| 2026-05-05 15:03 | 10.22791 | 123.74335 | 4988 ft | 215 kts | 133° |
| 2026-05-05 15:04 | 10.22542 | 123.74588 | 4993 ft | 215 kts | 133° |
| 2026-05-05 15:04 | 10.21489 | 123.75661 | 4910 ft | 210 kts | 133° |
| 2026-05-05 15:04 | 10.20480 | 123.76685 | 4679 ft | 202 kts | 133° |
| 2026-05-05 15:04 | 10.19497 | 123.77684 | 4497 ft | 192 kts | 133° |
| 2026-05-05 15:05 | 10.17629 | 123.79583 | 3901 ft | 190 kts | 132° |
| 2026-05-05 15:05 | 10.16693 | 123.80534 | 3594 ft | 190 kts | 131° |
| 2026-05-05 15:05 | 10.16037 | 123.81657 | 3300 ft | 186 kts | 98° |
| 2026-05-05 15:06 | 10.16217 | 123.82911 | 3062 ft | 183 kts | 65° |
| 2026-05-05 15:06 | 10.16921 | 123.83994 | 3016 ft | 182 kts | 50° |
| 2026-05-05 15:06 | 10.17778 | 123.84938 | 3009 ft | 183 kts | 46° |
| 2026-05-05 15:06 | 10.18693 | 123.85855 | 2987 ft | 183 kts | 45° |
| 2026-05-05 15:07 | 10.19608 | 123.86759 | 2790 ft | 184 kts | 45° |
| 2026-05-05 15:07 | 10.20524 | 123.87670 | 2532 ft | 185 kts | 45° |
| 2026-05-05 15:07 | 10.21432 | 123.88580 | 2285 ft | 184 kts | 45° |
| 2026-05-05 15:07 | 10.22320 | 123.89473 | 2041 ft | 175 kts | 45° |
| 2026-05-05 15:08 | 10.23176 | 123.90334 | 1802 ft | 166 kts | 45° |
| 2026-05-05 15:08 | 10.23976 | 123.91139 | 1595 ft | 159 kts | 45° |
| 2026-05-05 15:08 | 10.24752 | 123.91920 | 1388 ft | 152 kts | 45° |
| 2026-05-05 15:08 | 10.25487 | 123.92659 | 1193 ft | 146 kts | 44° |
| 2026-05-05 15:09 | 10.26202 | 123.93375 | 999 ft | 141 kts | 44° |
| 2026-05-05 15:09 | 10.26902 | 123.94080 | 820 ft | 142 kts | 44° |
| 2026-05-05 15:09 | 10.27604 | 123.94784 | 626 ft | 141 kts | 44° |
| 2026-05-05 15:09 | 10.28297 | 123.95489 | 437 ft | 141 kts | 44° |
| 2026-05-05 15:10 | 10.28996 | 123.96185 | 251 ft | 139 kts | 43° |
| 2026-05-05 15:10 | 10.29680 | 123.96868 | 103 ft | 134 kts | 44° |
| 2026-05-05 15:10 | 10.30317 | 123.97503 | 55 ft | 120 kts | 43° |
| 2026-05-05 15:10 | 10.30785 | 123.97969 | 54 ft | 70 kts | 45° |
| 2026-05-05 15:11 | 10.31088 | 123.98264 | 54 ft | 47 kts | 32° |
| 2026-05-05 15:11 | 10.31338 | 123.98352 | 54 ft | 19 kts | 354° |
| 2026-05-05 15:11 | 10.31438 | 123.98273 | 54 ft | 18 kts | 316° |
| 2026-05-05 15:11 | 10.31532 | 123.98180 | 54 ft | 18 kts | 315° |
| 2026-05-05 15:12 | 10.31559 | 123.98105 | 54 ft | 13 kts | 245° |
| 2026-05-05 15:12 | 10.31547 | 123.98082 | 54 ft | 3 kts | 252° |
| 2026-05-05 15:12 | 10.31555 | 123.98064 | 54 ft | 3 kts | 313° |
| 2026-05-05 15:12 | 10.31589 | 123.98031 | 54 ft | 4 kts | 316° |
| 2026-05-05 15:13 | 10.31592 | 123.98028 | 54 ft | 0 kts | 316° |